Time;durP1;ratioP1;P1;durP2;ratioP2;P2;SDS_P1;SDS_P2;PMS_P1;PMS_P2;Temp;Humidity;BMP_temperature;BMP_pressure;BME280_temperature;BME280_humidity;BME280_pressure;Samples;Min_cycle;Max_cycle;Signal;HPM_P1;HPM_P2
2021/12/17 00:07:04;;;;;;;0.20;0.20;;;;;;;;;;4940797;29;20083;-89
2021/12/17 00:09:33;;;;;;;0.20;0.20;;;;;;;;;;4956139;29;20401;-90
2021/12/17 00:11:59;;;;;;;0.10;0.10;;;;;;;;;;4940192;29;20050;-90
2021/12/17 00:14:35;;;;;;;0.10;0.10;;;;;;;;;;4923974;29;20047;-91
2021/12/17 00:17:04;;;;;;;0.10;0.10;;;;;;;;;;4941200;29;20356;-90
2021/12/17 00:44:12;;;;;;;0.10;0.10;;;;;;;;;;4938973;29;20478;-90
2021/12/17 00:49:22;;;;;;;0.10;0.10;;;;;;;;;;4941745;29;20130;-91
2021/12/17 00:54:30;;;;;;;0.10;0.10;;;;;;;;;;4940651;29;20142;-90
2021/12/17 00:56:57;;;;;;;0.10;0.10;;;;;;;;;;4924312;29;20399;-90
2021/12/17 00:59:23;;;;;;;0.10;0.10;;;;;;;;;;4923422;29;20066;-91
2021/12/17 01:01:49;;;;;;;0.15;0.15;;;;;;;;;;4939283;29;20035;-91
2021/12/17 01:04:15;;;;;;;0.10;0.10;;;;;;;;;;4938791;29;20039;-91
2021/12/17 01:06:42;;;;;;;0.10;0.10;;;;;;;;;;4923298;29;20376;-91
2021/12/17 01:09:08;;;;;;;0.10;0.10;;;;;;;;;;4938767;29;20142;-90
2021/12/17 01:11:34;;;;;;;0.22;0.22;;;;;;;;;;4938844;28;20039;-91
2021/12/17 01:14:00;;;;;;;0.10;0.10;;;;;;;;;;4954541;29;20133;-90
2021/12/17 01:16:26;;;;;;;0.10;0.10;;;;;;;;;;4938510;29;20548;-90
2021/12/17 01:21:38;;;;;;;0.10;0.10;;;;;;;;;;4939908;28;20062;-90
2021/12/17 01:42:45;;;;;;;0.43;0.13;;;;;;;;;;4953940;28;20460;-90
2021/12/17 01:45:11;;;;;;;0.10;0.10;;;;;;;;;;4938382;29;20058;-90
2021/12/17 01:47:37;;;;;;;0.10;0.10;;;;;;;;;;4938375;29;20126;-89
2021/12/17 01:56:01;;;;;;;0.10;0.10;;;;;;;;;;4953793;29;20047;-90
2021/12/17 02:01:12;;;;;;;0.10;0.10;;;;;;;;;;4940463;29;20039;-90
2021/12/17 02:03:38;;;;;;;0.10;0.10;;;;;;;;;;4922057;29;20047;-91
2021/12/17 02:06:05;;;;;;;0.10;0.10;;;;;;;;;;4938172;29;20043;-91
2021/12/17 02:08:31;;;;;;;0.10;0.10;;;;;;;;;;4938348;29;20058;-91
2021/12/17 02:11:35;;;;;;;0.10;0.10;;;;;;;;;;4922343;29;20051;-92
2021/12/17 02:32:19;;;;;;;0.10;0.10;;;;;;;;;;4953782;28;20039;-91
2021/12/17 02:37:15;;;;;;;0.10;0.10;;;;;;;;;;4937601;29;20095;-91
2021/12/17 02:40:03;;;;;;;0.10;0.10;;;;;;;;;;4938659;29;20410;-91
2021/12/17 02:45:31;;;;;;;0.10;0.10;;;;;;;;;;4940147;29;20043;-91
2021/12/17 02:45:35;;;;;;;0.10;0.10;;;;;;;;;;4941292;29;20698;-92
2021/12/17 02:48:03;;;;;;;0.10;0.10;;;;;;;;;;4923869;29;20046;-91
2021/12/17 02:50:29;;;;;;;0.10;0.10;;;;;;;;;;4937817;29;20406;-91
2021/12/17 02:52:56;;;;;;;0.10;0.10;;;;;;;;;;4937455;29;20046;-91
2021/12/17 02:55:22;;;;;;;0.20;0.20;;;;;;;;;;4921553;29;20054;-91
2021/12/17 02:57:48;;;;;;;0.10;0.10;;;;;;;;;;4953124;29;20040;-91
2021/12/17 03:00:14;;;;;;;0.30;0.30;;;;;;;;;;4937087;29;20379;-90
2021/12/17 03:02:40;;;;;;;0.10;0.10;;;;;;;;;;4937134;29;20043;-91
2021/12/17 03:05:09;;;;;;;0.10;0.10;;;;;;;;;;4921344;29;20039;-91
2021/12/17 03:07:38;;;;;;;0.10;0.10;;;;;;;;;;4921511;29;20049;-91
2021/12/17 03:10:07;;;;;;;0.10;0.10;;;;;;;;;;4937784;29;20380;-90
2021/12/17 03:12:44;;;;;;;0.10;0.10;;;;;;;;;;4921291;29;20075;-91
2021/12/17 03:15:20;;;;;;;0.10;0.10;;;;;;;;;;4938395;29;20047;-91
2021/12/17 03:25:50;;;;;;;0.10;0.10;;;;;;;;;;4938788;29;20047;-89
2021/12/17 03:28:17;;;;;;;0.10;0.10;;;;;;;;;;4952271;29;20110;-89
2021/12/17 03:30:43;;;;;;;0.10;0.10;;;;;;;;;;4936588;29;20058;-89
2021/12/17 03:33:10;;;;;;;0.10;0.10;;;;;;;;;;4936574;29;20047;-90
2021/12/17 03:35:36;;;;;;;0.10;0.10;;;;;;;;;;4936280;29;20078;-90
2021/12/17 03:38:02;;;;;;;0.10;0.10;;;;;;;;;;4920765;29;20141;-90
2021/12/17 03:40:31;;;;;;;0.10;0.10;;;;;;;;;;4936338;29;20044;-90
2021/12/17 03:43:02;;;;;;;0.10;0.10;;;;;;;;;;4936536;29;20043;-90
2021/12/17 03:45:28;;;;;;;0.10;0.10;;;;;;;;;;4937401;29;20396;-90
2021/12/17 03:47:54;;;;;;;0.10;0.10;;;;;;;;;;4920608;29;20035;-89
2021/12/17 03:50:20;;;;;;;0.10;0.10;;;;;;;;;;4921010;29;20054;-89
2021/12/17 03:52:46;;;;;;;0.10;0.10;;;;;;;;;;4952252;28;20107;-89
2021/12/17 03:55:12;;;;;;;0.10;0.10;;;;;;;;;;4936144;29;20400;-90
2021/12/17 03:57:38;;;;;;;0.10;0.10;;;;;;;;;;4920492;29;20158;-89
2021/12/17 04:00:05;;;;;;;0.10;0.10;;;;;;;;;;4936764;29;20065;-90
2021/12/17 04:02:31;;;;;;;0.10;0.10;;;;;;;;;;4936372;28;20043;-90
2021/12/17 04:04:57;;;;;;;0.10;0.10;;;;;;;;;;4939318;29;20110;-89
2021/12/17 04:07:23;;;;;;;0.10;0.10;;;;;;;;;;4939901;29;20046;-90
2021/12/17 04:09:48;;;;;;;0.10;0.10;;;;;;;;;;4939965;29;20055;-90
2021/12/17 04:12:18;;;;;;;0.10;0.10;;;;;;;;;;4939519;29;20043;-90
2021/12/17 04:14:46;;;;;;;0.10;0.10;;;;;;;;;;4924265;29;20124;-90
2021/12/17 04:17:15;;;;;;;0.10;0.10;;;;;;;;;;4923983;29;20043;-90
2021/12/17 04:19:41;;;;;;;0.10;0.10;;;;;;;;;;4924293;29;20386;-89
2021/12/17 04:22:08;;;;;;;0.10;0.10;;;;;;;;;;4923856;29;20069;-90
2021/12/17 04:24:34;;;;;;;0.10;0.10;;;;;;;;;;4924233;29;20035;-90
2021/12/17 04:27:00;;;;;;;0.10;0.10;;;;;;;;;;4939683;29;20521;-90
2021/12/17 04:29:26;;;;;;;0.10;0.10;;;;;;;;;;4939380;29;20451;-89
2021/12/17 04:31:55;;;;;;;0.10;0.10;;;;;;;;;;4939409;29;20050;-90
2021/12/17 04:34:21;;;;;;;0.10;0.10;;;;;;;;;;4939456;29;20122;-90
2021/12/17 04:36:49;;;;;;;0.10;0.10;;;;;;;;;;4938986;29;20395;-89
2021/12/17 04:39:17;;;;;;;0.10;0.10;;;;;;;;;;4939514;29;20051;-89
2021/12/17 04:44:16;;;;;;;0.10;0.10;;;;;;;;;;4939105;29;20058;-91
2021/12/17 04:57:35;;;;;;;0.10;0.10;;;;;;;;;;4954995;29;20091;-91
2021/12/17 05:00:04;;;;;;;0.10;0.10;;;;;;;;;;4939760;29;20117;-91
2021/12/17 05:02:33;;;;;;;0.10;0.10;;;;;;;;;;4923478;29;20039;-91
2021/12/17 05:05:05;;;;;;;0.10;0.10;;;;;;;;;;4939185;29;20043;-91
2021/12/17 05:07:31;;;;;;;0.10;0.10;;;;;;;;;;4923943;29;20142;-91
2021/12/17 05:10:15;;;;;;;0.10;0.10;;;;;;;;;;4923013;29;20050;-90
2021/12/17 05:20:49;;;;;;;0.10;0.10;;;;;;;;;;4939756;29;20343;-91
2021/12/17 05:23:15;;;;;;;0.10;0.10;;;;;;;;;;4939543;29;20319;-91
2021/12/17 05:25:41;;;;;;;0.10;0.10;;;;;;;;;;4938865;29;20102;-90
2021/12/17 05:28:07;;;;;;;0.10;0.10;;;;;;;;;;4922759;29;20055;-90
2021/12/17 05:30:34;;;;;;;0.10;0.10;;;;;;;;;;4923134;29;20050;-90
2021/12/17 05:33:01;;;;;;;0.10;0.10;;;;;;;;;;4938828;29;20050;-91
2021/12/17 05:35:27;;;;;;;0.10;0.10;;;;;;;;;;4938324;29;20047;-91
2021/12/17 05:37:54;;;;;;;0.10;0.10;;;;;;;;;;4938570;29;20047;-91
2021/12/17 05:40:21;;;;;;;0.10;0.10;;;;;;;;;;4923342;29;20053;-90
2021/12/17 05:42:50;;;;;;;0.10;0.10;;;;;;;;;;4938336;29;20052;-91
2021/12/17 05:45:32;;;;;;;0.10;0.10;;;;;;;;;;4923235;29;20403;-91
2021/12/17 05:47:58;;;;;;;0.10;0.10;;;;;;;;;;4924816;29;20345;-90
2021/12/17 05:50:24;;;;;;;0.10;0.10;;;;;;;;;;4922301;29;20042;-90
2021/12/17 05:52:50;;;;;;;0.10;0.10;;;;;;;;;;4937982;29;20398;-90
2021/12/17 05:55:16;;;;;;;0.10;0.10;;;;;;;;;;4937933;29;20047;-91
2021/12/17 05:57:42;;;;;;;0.10;0.10;;;;;;;;;;4922374;29;20039;-90
2021/12/17 06:00:08;;;;;;;0.15;0.15;;;;;;;;;;4937975;29;20367;-91
2021/12/17 06:02:34;;;;;;;0.10;0.10;;;;;;;;;;4922218;29;20046;-90
2021/12/17 06:05:01;;;;;;;0.10;0.10;;;;;;;;;;4937774;29;20487;-90
2021/12/17 06:07:27;;;;;;;0.10;0.10;;;;;;;;;;4922231;29;20042;-91
2021/12/17 06:09:53;;;;;;;0.10;0.10;;;;;;;;;;4922066;29;20050;-90
2021/12/17 06:12:19;;;;;;;0.10;0.10;;;;;;;;;;4921992;29;20079;-91
2021/12/17 06:14:45;;;;;;;0.10;0.10;;;;;;;;;;4921670;29;20062;-90
2021/12/17 06:17:11;;;;;;;0.10;0.10;;;;;;;;;;4922039;29;20043;-89
2021/12/17 06:19:37;;;;;;;0.10;0.10;;;;;;;;;;4938005;29;20035;-90
2021/12/17 06:22:03;;;;;;;0.10;0.10;;;;;;;;;;4921726;29;20102;-89
2021/12/17 06:24:29;;;;;;;0.10;0.10;;;;;;;;;;4953411;29;20107;-90
2021/12/17 06:26:55;;;;;;;0.10;0.10;;;;;;;;;;4937271;29;20502;-90
2021/12/17 06:29:21;;;;;;;0.10;0.10;;;;;;;;;;4937270;29;20403;-89
2021/12/17 06:31:47;;;;;;;0.10;0.10;;;;;;;;;;4937226;29;20118;-90
2021/12/17 06:34:13;;;;;;;0.10;0.10;;;;;;;;;;4937289;29;20078;-91
2021/12/17 06:36:41;;;;;;;0.10;0.10;;;;;;;;;;4936816;29;20059;-89
2021/12/17 06:39:07;;;;;;;0.10;0.10;;;;;;;;;;4920780;29;20044;-89
2021/12/17 06:41:35;;;;;;;0.10;0.10;;;;;;;;;;4936308;28;20412;-93
2021/12/17 06:44:01;;;;;;;0.10;0.10;;;;;;;;;;4936380;29;20043;-87
2021/12/17 06:46:37;;;;;;;0.10;0.10;;;;;;;;;;4936402;29;20035;-89
2021/12/17 06:49:26;;;;;;;0.10;0.10;;;;;;;;;;4937565;29;20314;-89
2021/12/17 06:57:58;;;;;;;0.10;0.10;;;;;;;;;;4936291;29;20070;-89
2021/12/17 07:10:38;;;;;;;0.10;0.10;;;;;;;;;;4936045;29;20110;-89
2021/12/17 07:24:04;;;;;;;0.10;0.10;;;;;;;;;;4951698;29;20042;-89
2021/12/17 07:32:18;;;;;;;0.10;0.10;;;;;;;;;;4936238;28;20057;-89
2021/12/17 07:35:01;;;;;;;0.10;0.10;;;;;;;;;;4938949;29;20432;-89
2021/12/17 07:39:54;;;;;;;0.13;0.13;;;;;;;;;;4939767;29;20418;-89
2021/12/17 07:42:20;;;;;;;0.10;0.10;;;;;;;;;;4924522;29;20047;-90
2021/12/17 07:44:46;;;;;;;0.10;0.10;;;;;;;;;;4940767;29;20042;-90
2021/12/17 07:47:12;;;;;;;0.10;0.10;;;;;;;;;;4924838;29;20098;-90
2021/12/17 07:49:38;;;;;;;0.10;0.10;;;;;;;;;;4940286;29;20043;-89
2021/12/17 07:52:04;;;;;;;0.10;0.10;;;;;;;;;;4940324;29;20097;-90
2021/12/17 07:54:30;;;;;;;0.10;0.10;;;;;;;;;;4956073;29;20054;-87
2021/12/17 07:56:57;;;;;;;0.10;0.10;;;;;;;;;;4924407;29;20403;-92
2021/12/17 07:59:23;;;;;;;0.10;0.10;;;;;;;;;;4925062;29;20492;-90
2021/12/17 08:01:49;;;;;;;0.10;0.10;;;;;;;;;;4941485;29;20250;-90
2021/12/17 08:04:15;;;;;;;0.10;0.10;;;;;;;;;;4925804;29;20050;-90
2021/12/17 08:06:41;;;;;;;0.10;0.10;;;;;;;;;;4959056;29;20142;-89
2021/12/17 08:09:07;;;;;;;0.10;0.10;;;;;;;;;;4942878;29;20510;-87
2021/12/17 08:11:38;;;;;;;0.10;0.10;;;;;;;;;;4958682;28;20039;-91
2021/12/17 08:14:08;;;;;;;0.10;0.10;;;;;;;;;;4942887;29;20051;-86
2021/12/17 08:16:43;;;;;;;0.10;0.10;;;;;;;;;;4943328;29;20079;-85
2021/12/17 08:23:20;;;;;;;0.10;0.10;;;;;;;;;;4943526;29;20050;-85
2021/12/17 08:24:47;;;;;;;0.10;0.10;;;;;;;;;;4945074;29;20130;-87
2021/12/17 08:27:47;;;;;;;0.10;0.10;;;;;;;;;;4943117;29;20067;-87
2021/12/17 08:32:39;;;;;;;0.10;0.10;;;;;;;;;;4955145;28;20566;-87
2021/12/17 08:35:05;;;;;;;0.10;0.10;;;;;;;;;;4939305;29;20069;-87
2021/12/17 08:37:32;;;;;;;0.10;0.10;;;;;;;;;;4923202;29;20055;-87
2021/12/17 08:39:58;;;;;;;0.45;0.45;;;;;;;;;;4939366;29;20047;-86
2021/12/17 08:42:24;;;;;;;0.10;0.10;;;;;;;;;;4955030;28;20097;-89
2021/12/17 08:44:50;;;;;;;0.10;0.10;;;;;;;;;;4942838;29;20039;-88
2021/12/17 08:47:16;;;;;;;0.10;0.10;;;;;;;;;;4942181;29;20049;-86
2021/12/17 08:49:43;;;;;;;0.10;0.10;;;;;;;;;;4942220;29;20455;-86
2021/12/17 08:52:09;;;;;;;0.10;0.10;;;;;;;;;;4941745;29;20054;-89
2021/12/17 08:54:35;;;;;;;0.10;0.10;;;;;;;;;;4939106;29;20126;-88
2021/12/17 08:57:01;;;;;;;0.10;0.10;;;;;;;;;;4923181;29;20137;-86
2021/12/17 08:59:29;;;;;;;0.10;0.10;;;;;;;;;;4939155;29;20035;-87
2021/12/17 09:01:55;;;;;;;0.10;0.10;;;;;;;;;;4923252;29;20044;-86
2021/12/17 09:04:21;;;;;;;0.10;0.10;;;;;;;;;;4938851;29;20418;-87
2021/12/17 09:06:47;;;;;;;0.10;0.10;;;;;;;;;;4954736;29;20043;-88
2021/12/17 09:09:18;;;;;;;0.10;0.10;;;;;;;;;;4954832;29;20055;-88
2021/12/17 09:11:44;;;;;;;0.10;0.10;;;;;;;;;;4938244;29;20570;-87
2021/12/17 09:14:10;;;;;;;0.10;0.10;;;;;;;;;;4922836;29;20085;-88
2021/12/17 09:16:36;;;;;;;0.10;0.10;;;;;;;;;;4938551;29;20039;-87
2021/12/17 09:19:03;;;;;;;0.10;0.10;;;;;;;;;;4938352;29;20074;-87
2021/12/17 09:21:29;;;;;;;0.10;0.10;;;;;;;;;;4922831;28;20483;-88
2021/12/17 09:23:55;;;;;;;0.10;0.10;;;;;;;;;;4954358;29;20058;-86
2021/12/17 09:26:22;;;;;;;0.20;0.20;;;;;;;;;;4938368;29;20049;-85
2021/12/17 09:28:48;;;;;;;0.10;0.10;;;;;;;;;;4939171;29;20086;-85
2021/12/17 09:31:14;;;;;;;0.10;0.10;;;;;;;;;;4938495;29;20141;-85
2021/12/17 09:33:40;;;;;;;0.10;0.10;;;;;;;;;;4922446;29;20051;-85
2021/12/17 09:36:06;;;;;;;0.10;0.10;;;;;;;;;;4953776;29;20051;-86
2021/12/17 09:38:32;;;;;;;0.10;0.10;;;;;;;;;;4938215;29;20508;-86
2021/12/17 09:40:58;;;;;;;0.10;0.10;;;;;;;;;;4953834;29;20043;-86
2021/12/17 09:43:26;;;;;;;0.10;0.10;;;;;;;;;;4938070;29;20043;-86
2021/12/17 09:45:51;;;;;;;0.10;0.10;;;;;;;;;;4922736;29;20142;-87
2021/12/17 09:48:19;;;;;;;0.10;0.10;;;;;;;;;;4938369;29;20070;-87
2021/12/17 09:50:45;;;;;;;0.10;0.10;;;;;;;;;;4938423;29;20047;-87
2021/12/17 09:53:11;;;;;;;0.10;0.10;;;;;;;;;;4937924;29;20581;-87
2021/12/17 09:55:37;;;;;;;0.10;0.10;;;;;;;;;;4939906;29;20062;-87
2021/12/17 09:58:03;;;;;;;0.10;0.10;;;;;;;;;;4948925;29;20067;-86
2021/12/17 10:00:29;;;;;;;0.10;0.10;;;;;;;;;;4943670;28;20035;-87
2021/12/17 10:02:55;;;;;;;0.10;0.10;;;;;;;;;;4937333;29;20035;-87
2021/12/17 10:05:31;;;;;;;0.10;0.10;;;;;;;;;;4922221;29;20043;-86
2021/12/17 10:08:06;;;;;;;0.10;0.10;;;;;;;;;;4937653;29;20055;-85
2021/12/17 10:10:36;;;;;;;0.10;0.10;;;;;;;;;;4937781;29;20039;-85
2021/12/17 10:13:22;;;;;;;0.10;0.10;;;;;;;;;;4937445;29;20046;-86
2021/12/17 10:15:49;;;;;;;0.10;0.10;;;;;;;;;;4953476;29;20047;-90
2021/12/17 10:18:15;;;;;;;0.10;0.10;;;;;;;;;;4937715;29;20130;-86
2021/12/17 10:20:41;;;;;;;0.10;0.10;;;;;;;;;;4953350;29;20039;-89
2021/12/17 10:23:08;;;;;;;0.10;0.10;;;;;;;;;;4953233;28;20040;-89
2021/12/17 10:25:34;;;;;;;0.10;0.10;;;;;;;;;;4921524;29;20159;-89
2021/12/17 10:28:03;;;;;;;0.10;0.10;;;;;;;;;;4937373;29;20043;-88
2021/12/17 10:30:29;;;;;;;0.10;0.10;;;;;;;;;;4922066;29;20039;-89
2021/12/17 10:32:55;;;;;;;0.10;0.10;;;;;;;;;;4921320;29;20479;-88
2021/12/17 10:35:22;;;;;;;0.10;0.10;;;;;;;;;;4937284;29;20043;-89
2021/12/17 10:38:14;;;;;;;0.10;0.10;;;;;;;;;;4936982;29;20123;-89
2021/12/17 10:40:45;;;;;;;0.10;0.10;;;;;;;;;;4944937;29;20050;-89
2021/12/17 10:43:18;;;;;;;0.10;0.10;;;;;;;;;;4937730;29;20094;-88
2021/12/17 10:45:57;;;;;;;0.10;0.10;;;;;;;;;;4922196;29;20557;-89
2021/12/17 10:48:26;;;;;;;0.10;0.10;;;;;;;;;;4922712;29;20040;-89
2021/12/17 10:50:55;;;;;;;0.10;0.10;;;;;;;;;;4921640;29;20042;-89
2021/12/17 10:53:22;;;;;;;0.10;0.10;;;;;;;;;;4921056;29;20086;-88
2021/12/17 10:55:48;;;;;;;0.10;0.10;;;;;;;;;;4936629;29;20051;-89
2021/12/17 10:58:14;;;;;;;0.10;0.10;;;;;;;;;;4937287;29;20125;-88
2021/12/17 11:00:57;;;;;;;0.10;0.10;;;;;;;;;;4953037;29;20042;-89
2021/12/17 11:03:23;;;;;;;0.10;0.10;;;;;;;;;;4936789;29;20062;-88
2021/12/17 11:05:49;;;;;;;0.10;0.10;;;;;;;;;;4936642;29;20133;-89
2021/12/17 11:08:37;;;;;;;0.10;0.10;;;;;;;;;;4936630;29;20130;-89
2021/12/17 11:11:12;;;;;;;0.10;0.10;;;;;;;;;;4921545;29;20543;-89
2021/12/17 11:13:58;;;;;;;0.10;0.10;;;;;;;;;;4920988;29;20137;-89
2021/12/17 11:16:24;;;;;;;0.10;0.10;;;;;;;;;;4937051;29;20475;-89
2021/12/17 11:18:50;;;;;;;0.10;0.10;;;;;;;;;;4921104;29;20063;-88
2021/12/17 11:21:16;;;;;;;0.10;0.10;;;;;;;;;;4936685;29;20408;-89
2021/12/17 11:23:42;;;;;;;0.10;0.10;;;;;;;;;;4936922;29;20035;-91
2021/12/17 11:26:10;;;;;;;0.10;0.10;;;;;;;;;;4921298;29;20046;-90
2021/12/17 11:28:35;;;;;;;0.10;0.10;;;;;;;;;;4937293;29;20502;-90
2021/12/17 11:31:01;;;;;;;0.10;0.10;;;;;;;;;;4937721;29;20158;-90
2021/12/17 11:33:27;;;;;;;0.25;0.25;;;;;;;;;;4937565;29;20055;-88
2021/12/17 11:35:55;;;;;;;0.10;0.10;;;;;;;;;;4937290;29;20051;-88
2021/12/17 11:38:23;;;;;;;0.10;0.10;;;;;;;;;;4937872;29;20093;-89
2021/12/17 11:40:49;;;;;;;0.10;0.10;;;;;;;;;;4952206;29;20047;-87
2021/12/17 11:43:16;;;;;;;0.10;0.10;;;;;;;;;;4952449;28;20058;-88
2021/12/17 11:45:45;;;;;;;0.10;0.10;;;;;;;;;;4952065;29;20047;-88
2021/12/17 11:48:18;;;;;;;0.10;0.10;;;;;;;;;;4936527;29;20114;-87
2021/12/17 11:50:45;;;;;;;0.10;0.10;;;;;;;;;;4936274;29;20047;-87
2021/12/17 11:53:22;;;;;;;0.15;0.15;;;;;;;;;;4952132;28;20078;-86
2021/12/17 11:55:48;;;;;;;0.10;0.10;;;;;;;;;;4936199;29;20146;-88
2021/12/17 11:58:16;;;;;;;0.10;0.10;;;;;;;;;;4936346;29;20138;-90
2021/12/17 12:00:42;;;;;;;0.10;0.10;;;;;;;;;;4920927;29;20475;-85
2021/12/17 12:03:12;;;;;;;0.10;0.10;;;;;;;;;;4951868;28;20094;-88
2021/12/17 12:05:40;;;;;;;0.10;0.10;;;;;;;;;;4936148;29;20031;-86
2021/12/17 12:08:38;;;;;;;0.10;0.10;;;;;;;;;;4920626;29;20086;-85
2021/12/17 12:11:08;;;;;;;0.10;0.10;;;;;;;;;;4951760;29;20102;-85
2021/12/17 12:13:38;;;;;;;0.10;0.10;;;;;;;;;;4936155;29;20075;-86
2021/12/17 12:16:05;;;;;;;0.10;0.10;;;;;;;;;;4936283;29;20391;-85
2021/12/17 12:18:57;;;;;;;0.10;0.10;;;;;;;;;;4936275;29;20266;-84
2021/12/17 12:21:24;;;;;;;0.10;0.10;;;;;;;;;;4948542;28;20043;-86
2021/12/17 12:23:50;;;;;;;0.10;0.10;;;;;;;;;;4936201;28;20091;-85
2021/12/17 12:26:26;;;;;;;0.10;0.10;;;;;;;;;;4939294;29;20047;-86
2021/12/17 12:28:59;;;;;;;0.10;0.10;;;;;;;;;;4939505;29;20066;-85
2021/12/17 12:31:25;;;;;;;0.10;0.10;;;;;;;;;;4956468;28;20043;-85
2021/12/17 12:34:04;;;;;;;0.10;0.10;;;;;;;;;;4955517;29;20372;-85
2021/12/17 12:36:49;;;;;;;0.10;0.10;;;;;;;;;;4954961;29;20063;-86
2021/12/17 12:39:19;;;;;;;0.10;0.10;;;;;;;;;;4939350;29;20043;-85
2021/12/17 12:42:06;;;;;;;0.10;0.10;;;;;;;;;;4937552;29;20050;-85
2021/12/17 12:44:44;;;;;;;0.10;0.10;;;;;;;;;;4955234;29;20390;-85
2021/12/17 12:47:10;;;;;;;0.10;0.10;;;;;;;;;;4954466;29;20491;-86
2021/12/17 12:49:45;;;;;;;0.10;0.10;;;;;;;;;;4939016;29;20079;-84
2021/12/17 12:52:15;;;;;;;0.20;0.20;;;;;;;;;;4954857;28;20047;-85
2021/12/17 12:54:42;;;;;;;0.10;0.10;;;;;;;;;;4939030;29;20058;-86
2021/12/17 12:57:09;;;;;;;0.10;0.10;;;;;;;;;;4938670;29;20042;-86
2021/12/17 12:59:35;;;;;;;0.10;0.10;;;;;;;;;;4954806;29;20047;-87
2021/12/17 13:02:01;;;;;;;0.10;0.10;;;;;;;;;;4938959;29;20391;-86
2021/12/17 13:04:31;;;;;;;0.10;0.10;;;;;;;;;;4922994;29;20439;-87
2021/12/17 13:06:57;;;;;;;0.10;0.10;;;;;;;;;;4938785;29;20146;-86
2021/12/17 13:09:29;;;;;;;0.10;0.10;;;;;;;;;;4938663;29;20086;-86
2021/12/17 13:11:55;;;;;;;0.10;0.10;;;;;;;;;;4938990;29;20047;-89
2021/12/17 13:14:24;;;;;;;0.10;0.10;;;;;;;;;;4923032;29;20046;-89
2021/12/17 13:22:54;;;;;;;0.10;0.10;;;;;;;;;;4937678;29;20054;-88
2021/12/17 13:25:27;;;;;;;0.10;0.10;;;;;;;;;;4940863;29;20039;-88
2021/12/17 13:27:53;;;;;;;;;;;;;;;;;;4954298;29;20054;-88
2021/12/17 13:30:26;;;;;;;0.10;0.10;;;;;;;;;;4953936;29;19922;-89
2021/12/17 13:32:52;;;;;;;;;;;;;;;;;;4938753;29;20051;-88
2021/12/17 13:35:18;;;;;;;0.10;0.10;;;;;;;;;;4953887;28;19919;-89
2021/12/17 13:37:43;;;;;;;0.10;0.10;;;;;;;;;;4921422;29;20047;-90
2021/12/17 13:40:10;;;;;;;0.10;0.10;;;;;;;;;;4938318;29;20073;-90
2021/12/17 13:42:37;;;;;;;0.10;0.10;;;;;;;;;;4922250;29;20399;-91
2021/12/17 13:45:04;;;;;;;0.10;0.10;;;;;;;;;;4937757;29;20475;-90
2021/12/17 13:47:37;;;;;;;0.10;0.10;;;;;;;;;;4953815;29;20055;-89
2021/12/17 13:50:08;;;;;;;0.10;0.10;;;;;;;;;;4953987;29;20054;-88
2021/12/17 13:52:35;;;;;;;0.20;0.20;;;;;;;;;;4922105;29;20134;-88
2021/12/17 13:55:02;;;;;;;0.10;0.10;;;;;;;;;;4938500;29;20424;-88
2021/12/17 13:57:29;;;;;;;0.10;0.10;;;;;;;;;;4937997;29;20043;-88
2021/12/17 14:00:02;;;;;;;0.10;0.10;;;;;;;;;;4937693;29;20047;-90
2021/12/17 14:02:28;;;;;;;0.10;0.10;;;;;;;;;;4937691;29;20064;-88
2021/12/17 14:05:05;;;;;;;0.10;0.10;;;;;;;;;;4953481;29;20147;-88
2021/12/17 14:07:31;;;;;;;0.10;0.10;;;;;;;;;;4921772;29;20043;-87
2021/12/17 14:09:58;;;;;;;0.10;0.10;;;;;;;;;;4938003;29;20047;-87
2021/12/17 14:12:30;;;;;;;0.10;0.10;;;;;;;;;;4937644;29;20054;-89
2021/12/17 14:14:57;;;;;;;0.15;0.15;;;;;;;;;;4938680;29;20047;-89
2021/12/17 14:17:23;;;;;;;0.10;0.10;;;;;;;;;;4938331;29;20138;-91
2021/12/17 14:19:50;;;;;;;0.10;0.10;;;;;;;;;;4941638;29;20082;-89
2021/12/17 14:22:27;;;;;;;0.10;0.10;;;;;;;;;;4926921;29;20500;-92
2021/12/17 14:24:54;;;;;;;0.10;0.10;;;;;;;;;;4941382;29;20051;-88
2021/12/17 14:27:20;;;;;;;0.10;0.10;;;;;;;;;;4953631;29;20110;-86
2021/12/17 14:29:46;;;;;;;0.10;0.10;;;;;;;;;;4936872;29;20094;-86
2021/12/17 14:32:18;;;;;;;0.10;0.10;;;;;;;;;;4937024;29;20229;-86
2021/12/17 14:34:44;;;;;;;0.10;0.10;;;;;;;;;;4936846;29;20050;-86
2021/12/17 14:37:10;;;;;;;0.43;0.43;;;;;;;;;;4936867;29;20051;-86
2021/12/17 14:39:41;;;;;;;0.10;0.10;;;;;;;;;;4936360;29;20054;-86
2021/12/17 14:42:08;;;;;;;0.10;0.10;;;;;;;;;;4952290;28;20082;-86
2021/12/17 14:44:48;;;;;;;0.10;0.10;;;;;;;;;;4921209;29;20070;-86
2021/12/17 14:47:28;;;;;;;0.10;0.10;;;;;;;;;;4938445;28;20053;-87
2021/12/17 15:00:27;;;;;;;0.10;0.10;;;;;;;;;;4937898;29;20051;-88
2021/12/17 15:03:01;;;;;;;0.20;0.20;;;;;;;;;;4922041;29;20043;-90
2021/12/17 15:05:28;;;;;;;0.10;0.10;;;;;;;;;;4922361;29;20035;-90
2021/12/17 15:07:56;;;;;;;0.10;0.10;;;;;;;;;;4936533;29;20109;-91
2021/12/17 15:10:23;;;;;;;0.10;0.10;;;;;;;;;;4921391;29;20043;-90
2021/12/17 15:12:49;;;;;;;0.10;0.10;;;;;;;;;;4920959;29;20054;-93
2021/12/17 15:15:16;;;;;;;0.10;0.10;;;;;;;;;;4936818;29;20039;-88
2021/12/17 15:17:42;;;;;;;0.10;0.10;;;;;;;;;;4936244;29;20043;-90
2021/12/17 15:20:09;;;;;;;0.10;0.10;;;;;;;;;;4936632;29;20192;-90
2021/12/17 15:22:35;;;;;;;0.10;0.10;;;;;;;;;;4920760;29;20043;-90
2021/12/17 15:25:01;;;;;;;0.10;0.10;;;;;;;;;;4920795;29;20051;-90
2021/12/17 15:27:29;;;;;;;0.10;0.10;;;;;;;;;;4921097;29;20043;-88
2021/12/17 15:29:55;;;;;;;0.10;0.10;;;;;;;;;;4920878;29;20043;-87
2021/12/17 15:32:21;;;;;;;0.10;0.10;;;;;;;;;;4936410;29;20035;-87
2021/12/17 15:34:47;;;;;;;0.10;0.10;;;;;;;;;;4920661;29;20450;-87
2021/12/17 15:37:13;;;;;;;0.10;0.10;;;;;;;;;;4936743;29;20055;-94
2021/12/17 15:39:39;;;;;;;0.10;0.10;;;;;;;;;;4921506;29;20184;-94
2021/12/17 15:42:05;;;;;;;0.10;0.10;;;;;;;;;;4920796;29;20039;-88
2021/12/17 15:44:32;;;;;;;0.10;0.10;;;;;;;;;;4936521;29;20077;-94
2021/12/17 15:46:58;;;;;;;0.10;0.10;;;;;;;;;;4921210;29;20446;-93
2021/12/17 15:49:24;;;;;;;0.10;0.10;;;;;;;;;;4921300;29;20050;-94
2021/12/17 15:51:50;;;;;;;0.10;0.10;;;;;;;;;;4921246;29;20039;-94
2021/12/17 15:54:16;;;;;;;0.10;0.10;;;;;;;;;;4921686;29;20044;-95
2021/12/17 15:56:46;;;;;;;0.10;0.10;;;;;;;;;;4922272;29;20088;-94
2021/12/17 15:59:12;;;;;;;0.10;0.10;;;;;;;;;;4922260;29;20502;-93
2021/12/17 16:01:38;;;;;;;0.10;0.10;;;;;;;;;;4924923;28;20134;-94
2021/12/17 16:04:05;;;;;;;0.10;0.10;;;;;;;;;;4924529;29;20109;-95
2021/12/17 16:06:31;;;;;;;0.10;0.10;;;;;;;;;;4926942;29;20043;-95
2021/12/17 16:09:01;;;;;;;0.10;0.10;;;;;;;;;;4924949;29;20047;-95
2021/12/17 16:17:28;;;;;;;0.10;0.10;;;;;;;;;;4942661;29;20134;-93
2021/12/17 16:22:23;;;;;;;0.10;0.10;;;;;;;;;;4942508;29;20046;-92
2021/12/17 16:24:49;;;;;;;0.10;0.10;;;;;;;;;;4924446;29;20202;-91
2021/12/17 16:27:15;;;;;;;0.10;0.10;;;;;;;;;;4923660;29;20498;-92
2021/12/17 16:29:41;;;;;;;0.10;0.10;;;;;;;;;;4923920;29;20043;-91
2021/12/17 16:32:07;;;;;;;0.22;0.22;;;;;;;;;;4924260;29;20506;-93
2021/12/17 16:34:33;;;;;;;0.10;0.10;;;;;;;;;;4924221;29;20203;-90
2021/12/17 16:36:59;;;;;;;0.10;0.10;;;;;;;;;;4923386;29;20425;-89
2021/12/17 16:39:25;;;;;;;0.10;0.10;;;;;;;;;;4938973;29;20077;-88
2021/12/17 16:41:52;;;;;;;0.10;0.10;;;;;;;;;;4954512;28;20070;-87
2021/12/17 16:44:25;;;;;;;0.10;0.10;;;;;;;;;;4939126;29;20054;-87
2021/12/17 16:49:18;;;;;;;0.10;0.10;;;;;;;;;;4953275;29;20051;-86
2021/12/17 16:51:44;;;;;;;0.10;0.10;;;;;;;;;;4938700;28;20098;-88
2021/12/17 16:54:10;;;;;;;0.10;0.10;;;;;;;;;;4921891;29;20456;-88
2021/12/17 16:56:36;;;;;;;0.10;0.10;;;;;;;;;;4938435;29;20450;-88
2021/12/17 16:59:02;;;;;;;0.10;0.10;;;;;;;;;;4938643;29;20109;-87
2021/12/17 17:01:30;;;;;;;0.10;0.10;;;;;;;;;;4938535;29;20371;-88
2021/12/17 17:03:56;;;;;;;0.20;0.20;;;;;;;;;;4938255;29;20039;-87
2021/12/17 17:06:22;;;;;;;0.10;0.10;;;;;;;;;;4938573;29;20121;-88
2021/12/17 17:08:49;;;;;;;0.10;0.10;;;;;;;;;;4938324;29;20244;-87
2021/12/17 17:11:16;;;;;;;0.10;0.10;;;;;;;;;;4954464;28;20051;-87
2021/12/17 17:13:42;;;;;;;0.10;0.10;;;;;;;;;;4938736;29;20102;-87
2021/12/17 17:16:08;;;;;;;0.10;0.10;;;;;;;;;;4954121;29;20050;-87
2021/12/17 17:18:35;;;;;;;0.10;0.10;;;;;;;;;;4954166;29;20288;-87
2021/12/17 17:21:01;;;;;;;0.10;0.10;;;;;;;;;;4922373;29;20050;-87
2021/12/17 17:23:28;;;;;;;0.10;0.10;;;;;;;;;;4938005;29;20045;-87
2021/12/17 17:25:54;;;;;;;0.10;0.10;;;;;;;;;;4922460;29;20045;-87
2021/12/17 17:28:20;;;;;;;0.10;0.10;;;;;;;;;;4922240;29;20439;-87
2021/12/17 17:30:46;;;;;;;0.10;0.10;;;;;;;;;;4937945;29;20083;-87
2021/12/17 17:33:13;;;;;;;0.10;0.10;;;;;;;;;;4954112;28;20046;-92
2021/12/17 17:35:39;;;;;;;0.10;0.10;;;;;;;;;;4922559;29;20066;-91
2021/12/17 17:38:05;;;;;;;0.10;0.10;;;;;;;;;;4938036;29;20058;-91
2021/12/17 17:40:35;;;;;;;0.10;0.10;;;;;;;;;;4922573;29;20081;-93
2021/12/17 17:43:02;;;;;;;0.10;0.10;;;;;;;;;;4923043;29;20085;-90
2021/12/17 17:45:31;;;;;;;0.10;0.10;;;;;;;;;;4922259;29;20391;-91
2021/12/17 17:47:56;;;;;;;0.10;0.10;;;;;;;;;;4938456;29;20053;-91
2021/12/17 17:50:22;;;;;;;0.10;0.10;;;;;;;;;;4922133;29;20491;-92
2021/12/17 17:52:48;;;;;;;0.10;0.10;;;;;;;;;;4922266;29;20051;-91
2021/12/17 17:55:14;;;;;;;0.10;0.10;;;;;;;;;;4922403;29;20435;-91